バンコク/スワンナプーム の空港の天気 - METARとTAF

スワンナプーム国際空港 ( VTBS / BKK ) - タイ サムットプラーカーン県 (バンコク近郊)
飛行場実況気象(Metar)
観測時間06/24 16:30 ICT (06/24 09:30 UTC)
風向・風速南東 5m/s
視程10km以上
天気現象
少しの雲 雲底高度 610m
気温31℃
湿度70%
気圧1005hPa
METARVTBS 240930Z 13009KT 090V170 9999 FEW020 31/25 Q1005 NOSIG
過去の天気等 Google飛行場航空写真 Wunderground天気予報

過去48時間のMETAR

飛行場予報(TAF)
発表時間: 6/24 12:00 ICT (6/24 05:00 UTC)
予報対象時間: 24日13時 ICT ~ 25日19時 ICT
風向・風速南 3m/s
視程10km以上
全天の4割程度の雲 雲底高度 610m
24日15時 ICT ~ 24日19時 ICT に一時的に
風向・風速南南東 8m/s
視程5000m
天気現象雷雨
少しの積乱雲 雲底高度 550m
全天の4割程度の雲 雲底高度 910m
全天の8割程度の雲 雲底高度 3050m
25日15時 ICT ~ 25日19時 ICT に一時的に
風向・風速南南東 8m/s
視程5000m
天気現象雷雨
少しの積乱雲 雲底高度 550m
全天の4割程度の雲 雲底高度 910m
全天の8割程度の雲 雲底高度 3050m
TAF VTBS 240500Z 2406/2512 19005KT 9999 SCT020
TEMPO 2408/2412 16015KT 5000 TSRA FEW018CB SCT030 BKN100
TEMPO 2508/2512 16015KT 5000 TSRA FEW018CB SCT030 BKN100